sensor_id;sensor_type;location;lat;lon;timestamp;pressure;altitude;pressure_sealevel;temperature;humidity
39449;BME280;25151;45.566;9.382;2023-03-22T00:01:43;99696.03;;;19.98;56.55
39449;BME280;25151;45.566;9.382;2023-03-22T00:04:45;99697.59;;;19.99;56.36
39449;BME280;25151;45.566;9.382;2023-03-22T00:07:47;99692.47;;;19.98;56.52
39449;BME280;25151;45.566;9.382;2023-03-22T00:10:49;99684.16;;;19.94;56.53
39449;BME280;25151;45.566;9.382;2023-03-22T00:13:50;99684.94;;;19.95;56.40
39449;BME280;25151;45.566;9.382;2023-03-22T00:16:52;99677.78;;;19.94;56.21
39449;BME280;25151;45.566;9.382;2023-03-22T00:19:52;99684.94;;;19.95;56.41
39449;BME280;25151;45.566;9.382;2023-03-22T00:22:54;99689.00;;;19.94;56.37
39449;BME280;25151;45.566;9.382;2023-03-22T00:25:55;99688.22;;;19.93;56.27
39449;BME280;25151;45.566;9.382;2023-03-22T00:28:56;99687.44;;;19.93;56.41
39449;BME280;25151;45.566;9.382;2023-03-22T00:31:57;99683.84;;;19.92;56.41
39449;BME280;25151;45.566;9.382;2023-03-22T00:34:58;99678.69;;;19.90;56.28
39449;BME280;25151;45.566;9.382;2023-03-22T00:37:58;99689.88;;;19.90;56.39
39449;BME280;25151;45.566;9.382;2023-03-22T00:41:07;99685.84;;;19.92;56.60
39449;BME280;25151;45.566;9.382;2023-03-22T00:44:08;99678.38;;;19.88;56.57
39449;BME280;25151;45.566;9.382;2023-03-22T00:47:09;99681.59;;;19.87;56.51
39449;BME280;25151;45.566;9.382;2023-03-22T00:50:10;99680.38;;;19.88;56.46
39449;BME280;25151;45.566;9.382;2023-03-22T00:53:11;99679.16;;;19.89;56.56
39449;BME280;25151;45.566;9.382;2023-03-22T00:56:12;99664.47;;;19.85;56.48
39449;BME280;25151;45.566;9.382;2023-03-22T00:59:16;99660.44;;;19.86;56.33
39449;BME280;25151;45.566;9.382;2023-03-22T01:02:17;99658.00;;;19.88;56.48
39449;BME280;25151;45.566;9.382;2023-03-22T01:05:18;99670.41;;;19.87;56.47
39449;BME280;25151;45.566;9.382;2023-03-22T01:08:22;99660.91;;;19.84;56.20
39449;BME280;25151;45.566;9.382;2023-03-22T01:11:25;99660.13;;;19.84;56.46
39449;BME280;25151;45.566;9.382;2023-03-22T01:14:27;99658.53;;;19.83;56.45
39449;BME280;25151;45.566;9.382;2023-03-22T01:17:29;99652.63;;;19.81;56.54
39449;BME280;25151;45.566;9.382;2023-03-22T01:20:31;99654.97;;;19.82;56.41
39449;BME280;25151;45.566;9.382;2023-03-22T01:23:32;99649.81;;;19.81;56.44
39449;BME280;25151;45.566;9.382;2023-03-22T01:26:33;99649.81;;;19.81;56.40
39449;BME280;25151;45.566;9.382;2023-03-22T01:29:35;99652.63;;;19.81;56.35
39449;BME280;25151;45.566;9.382;2023-03-22T01:32:36;99652.63;;;19.81;56.47
39449;BME280;25151;45.566;9.382;2023-03-22T01:35:38;99643.09;;;19.78;56.42
39449;BME280;25151;45.566;9.382;2023-03-22T01:38:39;99650.25;;;19.79;56.55
39449;BME280;25151;45.566;9.382;2023-03-22T01:41:40;99653.06;;;19.79;56.53
39449;BME280;25151;45.566;9.382;2023-03-22T01:45:10;99653.50;;;19.78;56.46
39449;BME280;25151;45.566;9.382;2023-03-22T01:51:26;99655.97;;;19.76;56.41
39449;BME280;25151;45.566;9.382;2023-03-22T01:54:34;99657.88;;;19.79;56.71
39449;BME280;25151;45.566;9.382;2023-03-22T01:57:37;99657.53;;;19.77;56.41
39449;BME280;25151;45.566;9.382;2023-03-22T02:00:39;99653.16;;;19.76;56.53
39449;BME280;25151;45.566;9.382;2023-03-22T02:04:03;99658.31;;;19.77;56.56
39449;BME280;25151;45.566;9.382;2023-03-22T02:07:09;99656.88;;;19.73;56.55
39449;BME280;25151;45.566;9.382;2023-03-22T02:10:21;99659.22;;;19.74;56.61
39449;BME280;25151;45.566;9.382;2023-03-22T02:16:49;99661.56;;;19.76;56.65
39449;BME280;25151;45.566;9.382;2023-03-22T02:23:26;99655.28;;;19.72;56.45
39449;BME280;25151;45.566;9.382;2023-03-22T02:43:40;99645.78;;;19.69;56.56
39449;BME280;25151;45.566;9.382;2023-03-22T02:47:05;99649.81;;;19.68;56.40
39449;BME280;25151;45.566;9.382;2023-03-22T02:50:28;99658.53;;;19.70;56.56
39449;BME280;25151;45.566;9.382;2023-03-22T02:56:36;99661.34;;;19.70;56.36
39449;BME280;25151;45.566;9.382;2023-03-22T02:59:41;99655.41;;;19.68;56.30
39449;BME280;25151;45.566;9.382;2023-03-22T03:02:56;99649.81;;;19.68;56.49
39449;BME280;25151;45.566;9.382;2023-03-22T03:06:11;99652.28;;;19.66;56.45
39449;BME280;25151;45.566;9.382;2023-03-22T03:09:16;99659.78;;;19.69;56.38
39449;BME280;25151;45.566;9.382;2023-03-22T03:12:23;99649.94;;;19.64;56.58
39449;BME280;25151;45.566;9.382;2023-03-22T03:15:25;99649.03;;;19.68;56.36
39449;BME280;25151;45.566;9.382;2023-03-22T03:19:02;99657.09;;;19.65;56.53
39449;BME280;25151;45.566;9.382;2023-03-22T03:22:22;99661.13;;;19.64;56.40
39449;BME280;25151;45.566;9.382;2023-03-22T03:25:38;99666.72;;;19.64;56.53
39449;BME280;25151;45.566;9.382;2023-03-22T03:31:55;99665.13;;;19.63;56.57
39449;BME280;25151;45.566;9.382;2023-03-22T03:35:04;99663.16;;;19.64;56.59
39449;BME280;25151;45.566;9.382;2023-03-22T03:38:10;99671.97;;;19.62;56.44
39449;BME280;25151;45.566;9.382;2023-03-22T03:41:19;99669.94;;;19.63;56.46
39449;BME280;25151;45.566;9.382;2023-03-22T03:44:21;99673.19;;;19.61;56.56
39449;BME280;25151;45.566;9.382;2023-03-22T03:47:24;99672.75;;;19.63;56.57
39449;BME280;25151;45.566;9.382;2023-03-22T03:50:26;99662.00;;;19.61;56.58
39449;BME280;25151;45.566;9.382;2023-03-22T03:53:28;99669.25;;;19.59;56.48
39449;BME280;25151;45.566;9.382;2023-03-22T03:56:29;99663.22;;;19.60;56.42
39449;BME280;25151;45.566;9.382;2023-03-22T03:59:30;99671.97;;;19.62;56.36
39449;BME280;25151;45.566;9.382;2023-03-22T04:02:30;99671.72;;;19.57;56.37
39449;BME280;25151;45.566;9.382;2023-03-22T04:05:31;99673.28;;;19.58;56.41
39449;BME280;25151;45.566;9.382;2023-03-22T04:08:32;99674.41;;;19.60;56.38
39449;BME280;25151;45.566;9.382;2023-03-22T04:11:33;99681.22;;;19.59;56.63
39449;BME280;25151;45.566;9.382;2023-03-22T04:14:34;99673.63;;;19.60;56.35
39449;BME280;25151;45.566;9.382;2023-03-22T04:17:35;99672.50;;;19.57;56.45
39449;BME280;25151;45.566;9.382;2023-03-22T04:20:37;99675.63;;;19.59;56.20
39449;BME280;25151;45.566;9.382;2023-03-22T04:23:41;99671.25;;;19.58;56.56
39449;BME280;25151;45.566;9.382;2023-03-22T04:26:41;99672.50;;;19.57;56.45
39449;BME280;25151;45.566;9.382;2023-03-22T04:29:42;99678.41;;;19.59;56.47
39449;BME280;25151;45.566;9.382;2023-03-22T04:32:48;99681.31;;;19.56;56.50
39449;BME280;25151;45.566;9.382;2023-03-22T04:35:49;99686.13;;;19.55;56.32
39449;BME280;25151;45.566;9.382;2023-03-22T04:38:56;99686.03;;;19.59;56.31
39449;BME280;25151;45.566;9.382;2023-03-22T04:41:57;99688.03;;;19.58;56.56
39449;BME280;25151;45.566;9.382;2023-03-22T04:44:58;99690.84;;;19.58;56.46
39449;BME280;25151;45.566;9.382;2023-03-22T04:47:59;99683.69;;;19.57;56.49
39449;BME280;25151;45.566;9.382;2023-03-22T04:51:00;99670.59;;;19.54;56.40
39449;BME280;25151;45.566;9.382;2023-03-22T04:54:03;99685.34;;;19.55;56.45
39449;BME280;25151;45.566;9.382;2023-03-22T04:57:04;99676.94;;;19.55;56.55
39449;BME280;25151;45.566;9.382;2023-03-22T05:00:05;99684.09;;;19.56;56.50
39449;BME280;25151;45.566;9.382;2023-03-22T05:03:07;99682.13;;;19.56;56.50
39449;BME280;25151;45.566;9.382;2023-03-22T05:06:09;99680.22;;;19.53;56.45
39449;BME280;25151;45.566;9.382;2023-03-22T05:09:10;99677.06;;;19.51;56.42
39449;BME280;25151;45.566;9.382;2023-03-22T05:12:11;99675.03;;;19.52;56.29
39449;BME280;25151;45.566;9.382;2023-03-22T05:15:12;99667.47;;;19.52;56.36
39449;BME280;25151;45.566;9.382;2023-03-22T05:18:14;99684.09;;;19.56;56.49
39449;BME280;25151;45.566;9.382;2023-03-22T05:21:16;99687.03;;;19.52;56.58
39449;BME280;25151;45.566;9.382;2023-03-22T05:24:21;99694.19;;;19.53;56.35
39449;BME280;25151;45.566;9.382;2023-03-22T05:27:22;99690.16;;;19.54;56.48
39449;BME280;25151;45.566;9.382;2023-03-22T05:30:30;99690.16;;;19.54;56.30
39449;BME280;25151;45.566;9.382;2023-03-22T05:33:31;99701.03;;;19.52;56.57
39449;BME280;25151;45.566;9.382;2023-03-22T05:36:34;99699.78;;;19.53;56.39
39449;BME280;25151;45.566;9.382;2023-03-22T05:39:36;99693.50;;;19.49;56.44
39449;BME280;25151;45.566;9.382;2023-03-22T05:42:36;99705.28;;;19.57;56.38
39449;BME280;25151;45.566;9.382;2023-03-22T05:45:37;99709.28;;;19.56;56.53
39449;BME280;25151;45.566;9.382;2023-03-22T05:48:39;99716.09;;;19.55;56.34
39449;BME280;25151;45.566;9.382;2023-03-22T05:51:40;99721.28;;;19.56;56.46
39449;BME280;25151;45.566;9.382;2023-03-22T05:54:41;99718.47;;;19.56;56.72
39449;BME280;25151;45.566;9.382;2023-03-22T05:57:44;99722.06;;;19.57;56.61
39449;BME280;25151;45.566;9.382;2023-03-22T06:00:45;99719.25;;;19.57;56.74
39449;BME280;25151;45.566;9.382;2023-03-22T06:03:49;99725.28;;;19.55;56.85
39449;BME280;25151;45.566;9.382;2023-03-22T06:06:50;99728.44;;;19.57;56.75
39449;BME280;25151;45.566;9.382;2023-03-22T06:09:53;99725.63;;;19.57;56.64
39449;BME280;25151;45.566;9.382;2023-03-22T06:12:53;99724.06;;;19.56;56.66
39449;BME280;25151;45.566;9.382;2023-03-22T06:15:54;99720.03;;;19.57;56.63
39449;BME280;25151;45.566;9.382;2023-03-22T06:18:59;99730.00;;;19.58;56.75
39449;BME280;25151;45.566;9.382;2023-03-22T06:21:59;99738.38;;;19.58;56.76
39449;BME280;25151;45.566;9.382;2023-03-22T06:25:00;99741.63;;;19.57;56.49
39449;BME280;25151;45.566;9.382;2023-03-22T06:28:01;99736.81;;;19.57;56.85
39449;BME280;25151;45.566;9.382;2023-03-22T06:31:08;99742.41;;;19.57;56.92
39449;BME280;25151;45.566;9.382;2023-03-22T06:34:09;99741.19;;;19.58;56.81
39449;BME280;25151;45.566;9.382;2023-03-22T06:37:10;99739.94;;;19.59;56.60
39449;BME280;25151;45.566;9.382;2023-03-22T06:40:12;99738.75;;;19.60;56.82
39449;BME280;25151;45.566;9.382;2023-03-22T06:43:13;99744.34;;;19.60;56.83
39449;BME280;25151;45.566;9.382;2023-03-22T06:46:14;99747.47;;;19.62;56.84
39449;BME280;25151;45.566;9.382;2023-03-22T06:49:17;99749.03;;;19.63;56.71
39449;BME280;25151;45.566;9.382;2023-03-22T06:52:19;99753.44;;;19.64;56.77
39449;BME280;25151;45.566;9.382;2023-03-22T06:55:21;99759.03;;;19.64;56.72
39449;BME280;25151;45.566;9.382;2023-03-22T06:58:24;99752.31;;;19.62;56.82
39449;BME280;25151;45.566;9.382;2023-03-22T07:01:26;99749.94;;;19.60;56.74
39449;BME280;25151;45.566;9.382;2023-03-22T07:04:28;99754.75;;;19.60;56.92
39449;BME280;25151;45.566;9.382;2023-03-22T07:07:31;99747.91;;;19.61;56.85
39449;BME280;25151;45.566;9.382;2023-03-22T07:10:32;99743.56;;;19.60;56.90
39449;BME280;25151;45.566;9.382;2023-03-22T07:13:34;99748.34;;;19.59;56.75
39449;BME280;25151;45.566;9.382;2023-03-22T07:16:35;99750.72;;;19.61;56.83
39449;BME280;25151;45.566;9.382;2023-03-22T07:19:37;99753.16;;;19.59;56.61
39449;BME280;25151;45.566;9.382;2023-03-22T07:22:42;99760.34;;;19.60;56.59
39449;BME280;25151;45.566;9.382;2023-03-22T07:25:45;99759.97;;;19.58;56.08
39449;BME280;25151;45.566;9.382;2023-03-22T07:28:47;99756.81;;;19.56;55.99
39449;BME280;25151;45.566;9.382;2023-03-22T07:31:51;99761.63;;;19.55;55.63
39449;BME280;25151;45.566;9.382;2023-03-22T07:34:55;99754.84;;;19.56;55.62
39449;BME280;25151;45.566;9.382;2023-03-22T07:37:59;99758.41;;;19.57;55.81
39449;BME280;25151;45.566;9.382;2023-03-22T07:41:02;99755.63;;;19.57;55.71
39449;BME280;25151;45.566;9.382;2023-03-22T07:44:06;99756.41;;;19.57;55.61
39449;BME280;25151;45.566;9.382;2023-03-22T07:47:08;99763.56;;;19.58;55.70
39449;BME280;25151;45.566;9.382;2023-03-22T07:50:10;99762.00;;;19.57;55.38
39449;BME280;25151;45.566;9.382;2023-03-22T07:53:18;99762.78;;;19.58;55.50
39449;BME280;25151;45.566;9.382;2023-03-22T07:56:26;99765.13;;;19.59;55.63
39449;BME280;25151;45.566;9.382;2023-03-22T07:59:30;99773.50;;;19.59;55.61
39449;BME280;25151;45.566;9.382;2023-03-22T08:02:32;99776.31;;;19.59;55.48
39449;BME280;25151;45.566;9.382;2023-03-22T08:05:42;99775.88;;;19.61;55.31
39449;BME280;25151;45.566;9.382;2023-03-22T08:08:46;99778.69;;;19.61;55.32
39449;BME280;25151;45.566;9.382;2023-03-22T08:11:50;99770.28;;;19.61;55.42
39449;BME280;25151;45.566;9.382;2023-03-22T08:14:55;99779.50;;;19.61;55.20
39449;BME280;25151;45.566;9.382;2023-03-22T08:17:58;99785.09;;;19.61;55.43
39449;BME280;25151;45.566;9.382;2023-03-22T08:21:01;99780.63;;;19.64;55.34
39449;BME280;25151;45.566;9.382;2023-03-22T08:24:04;99796.59;;;19.63;55.34
39449;BME280;25151;45.566;9.382;2023-03-22T08:27:08;99796.59;;;19.63;55.34
39449;BME280;25151;45.566;9.382;2023-03-22T08:30:14;99797.84;;;19.62;55.32
39449;BME280;25151;45.566;9.382;2023-03-22T08:33:15;99801.88;;;19.61;55.42
39449;BME280;25151;45.566;9.382;2023-03-22T08:36:19;99802.19;;;19.63;55.53
39449;BME280;25151;45.566;9.382;2023-03-22T08:39:28;99797.41;;;19.64;55.34
39449;BME280;25151;45.566;9.382;2023-03-22T08:42:33;99796.06;;;19.69;55.57
39449;BME280;25151;45.566;9.382;2023-03-22T08:45:40;99792.50;;;19.68;55.73
39449;BME280;25151;45.566;9.382;2023-03-22T08:48:43;99798.09;;;19.68;55.96
39449;BME280;25151;45.566;9.382;2023-03-22T08:51:50;99806.03;;;19.70;56.06
39449;BME280;25151;45.566;9.382;2023-03-22T08:54:55;99794.47;;;19.68;56.17
39449;BME280;25151;45.566;9.382;2023-03-22T08:58:00;99790.47;;;19.69;56.24
39449;BME280;25151;45.566;9.382;2023-03-22T09:01:04;99799.66;;;19.69;56.08
39449;BME280;25151;45.566;9.382;2023-03-22T09:04:08;99786.44;;;19.70;56.06
39449;BME280;25151;45.566;9.382;2023-03-22T09:07:10;99790.81;;;19.71;56.26
39449;BME280;25151;45.566;9.382;2023-03-22T09:10:14;99785.22;;;19.71;56.15
39449;BME280;25151;45.566;9.382;2023-03-22T09:13:20;99783.19;;;19.71;56.25
39449;BME280;25151;45.566;9.382;2023-03-22T09:16:28;99788.00;;;19.71;56.31
39449;BME280;25151;45.566;9.382;2023-03-22T09:19:38;99782.41;;;19.71;56.00
39449;BME280;25151;45.566;9.382;2023-03-22T09:22:40;99783.97;;;19.72;56.26
39449;BME280;25151;45.566;9.382;2023-03-22T09:25:46;99784.78;;;19.72;56.18
39449;BME280;25151;45.566;9.382;2023-03-22T09:28:52;99781.53;;;19.74;55.96
39449;BME280;25151;45.566;9.382;2023-03-22T09:31:55;99780.75;;;19.73;56.01
39449;BME280;25151;45.566;9.382;2023-03-22T09:34:58;99776.72;;;19.74;56.02
39449;BME280;25151;45.566;9.382;2023-03-22T09:38:02;99776.72;;;19.74;55.96
39449;BME280;25151;45.566;9.382;2023-03-22T09:41:21;99771.91;;;19.75;56.04
39449;BME280;25151;45.566;9.382;2023-03-22T09:44:43;99770.66;;;19.76;56.06
39449;BME280;25151;45.566;9.382;2023-03-22T09:47:51;99768.69;;;19.76;55.92
39449;BME280;25151;45.566;9.382;2023-03-22T09:50:57;99771.03;;;19.78;55.98
39449;BME280;25151;45.566;9.382;2023-03-22T09:54:27;99771.78;;;19.78;56.02
39449;BME280;25151;45.566;9.382;2023-03-22T09:57:35;99769.00;;;19.78;55.86
39449;BME280;25151;45.566;9.382;2023-03-22T10:00:56;99772.56;;;19.79;56.05
39449;BME280;25151;45.566;9.382;2023-03-22T10:07:59;99772.94;;;19.81;55.85
39449;BME280;25151;45.566;9.382;2023-03-22T10:11:12;99771.69;;;19.82;55.76
39449;BME280;25151;45.566;9.382;2023-03-22T10:14:39;99774.03;;;19.83;55.75
39449;BME280;25151;45.566;9.382;2023-03-22T10:17:46;99764.88;;;19.83;55.77
39449;BME280;25151;45.566;9.382;2023-03-22T10:24:15;99770.03;;;19.84;55.72
39449;BME280;25151;45.566;9.382;2023-03-22T10:27:22;99768.44;;;19.83;55.68
39449;BME280;25151;45.566;9.382;2023-03-22T10:30:31;99762.41;;;19.85;55.49
39449;BME280;25151;45.566;9.382;2023-03-22T10:33:39;99759.16;;;19.86;55.59
39449;BME280;25151;45.566;9.382;2023-03-22T10:36:51;99762.75;;;19.87;55.52
39449;BME280;25151;45.566;9.382;2023-03-22T10:39:55;99765.88;;;19.89;55.49
39449;BME280;25151;45.566;9.382;2023-03-22T10:43:01;99760.28;;;19.89;55.56
39449;BME280;25151;45.566;9.382;2023-03-22T10:46:07;99751.91;;;19.89;55.64
39449;BME280;25151;45.566;9.382;2023-03-22T10:49:34;99753.47;;;19.90;55.63
39449;BME280;25151;45.566;9.382;2023-03-22T10:52:50;99753.81;;;19.92;55.54
39449;BME280;25151;45.566;9.382;2023-03-22T10:55:58;99745.41;;;19.92;55.59
39449;BME280;25151;45.566;9.382;2023-03-22T10:59:01;99750.56;;;19.94;55.28
39449;BME280;25151;45.566;9.382;2023-03-22T11:02:02;99744.19;;;19.93;55.50
39449;BME280;25151;45.566;9.382;2023-03-22T11:05:05;99740.13;;;19.94;55.51
39449;BME280;25151;45.566;9.382;2023-03-22T11:08:13;99741.69;;;19.95;55.56
39449;BME280;25151;45.566;9.382;2023-03-22T11:11:24;99746.09;;;19.96;55.33
39449;BME280;25151;45.566;9.382;2023-03-22T11:14:33;99732.09;;;19.96;55.35
39449;BME280;25151;45.566;9.382;2023-03-22T11:17:36;99725.72;;;19.96;55.28
39449;BME280;25151;45.566;9.382;2023-03-22T11:20:42;99728.84;;;19.98;55.26
39449;BME280;25151;45.566;9.382;2023-03-22T11:24:19;99717.66;;;19.98;55.23
39449;BME280;25151;45.566;9.382;2023-03-22T11:27:27;99718.44;;;19.98;55.43
39449;BME280;25151;45.566;9.382;2023-03-22T11:30:30;99715.19;;;20.00;55.49
39449;BME280;25151;45.566;9.382;2023-03-22T11:33:32;99711.16;;;20.01;55.34
39449;BME280;25151;45.566;9.382;2023-03-22T11:36:42;99704.78;;;20.00;55.17
39449;BME280;25151;45.566;9.382;2023-03-22T11:39:46;99699.97;;;20.01;55.25
39449;BME280;25151;45.566;9.382;2023-03-22T11:46:16;99698.25;;;20.03;55.27
39449;BME280;25151;45.566;9.382;2023-03-22T11:49:24;99689.88;;;20.03;55.29
39449;BME280;25151;45.566;9.382;2023-03-22T11:52:27;99683.84;;;20.05;55.27
39449;BME280;25151;45.566;9.382;2023-03-22T11:55:32;99685.84;;;20.04;55.23
39449;BME280;25151;45.566;9.382;2023-03-22T11:58:52;99675.44;;;20.05;55.09
39449;BME280;25151;45.566;9.382;2023-03-22T12:08:44;99667.38;;;20.07;55.13
39449;BME280;25151;45.566;9.382;2023-03-22T12:11:54;99658.19;;;20.06;55.15
39449;BME280;25151;45.566;9.382;2023-03-22T12:15:04;99653.38;;;20.07;55.25
39449;BME280;25151;45.566;9.382;2023-03-22T12:18:18;99654.97;;;20.08;55.35
39449;BME280;25151;45.566;9.382;2023-03-22T12:21:23;99649.34;;;20.08;55.14
39449;BME280;25151;45.566;9.382;2023-03-22T12:27:36;99638.94;;;20.08;55.38
39449;BME280;25151;45.566;9.382;2023-03-22T12:30:49;99637.69;;;20.09;55.51
39449;BME280;25151;45.566;9.382;2023-03-22T12:33:53;99630.53;;;20.08;55.31
39449;BME280;25151;45.566;9.382;2023-03-22T12:36:58;99634.91;;;20.09;55.24
39449;BME280;25151;45.566;9.382;2023-03-22T12:40:18;99635.69;;;20.10;55.16
39449;BME280;25151;45.566;9.382;2023-03-22T12:46:34;99618.88;;;20.10;55.16
39449;BME280;25151;45.566;9.382;2023-03-22T12:50:05;99621.69;;;20.10;55.35
39449;BME280;25151;45.566;9.382;2023-03-22T12:53:14;99612.50;;;20.09;55.11
39449;BME280;25151;45.566;9.382;2023-03-22T12:56:19;99609.25;;;20.11;55.08
39449;BME280;25151;45.566;9.382;2023-03-22T12:59:25;99603.66;;;20.11;55.30
39449;BME280;25151;45.566;9.382;2023-03-22T13:02:33;99606.44;;;20.11;55.32
39449;BME280;25151;45.566;9.382;2023-03-22T13:05:37;99597.28;;;20.10;55.11
39449;BME280;25151;45.566;9.382;2023-03-22T13:09:09;99598.06;;;20.11;55.06
39449;BME280;25151;45.566;9.382;2023-03-22T13:15:32;99593.25;;;20.11;55.23
39449;BME280;25151;45.566;9.382;2023-03-22T13:21:40;99590.47;;;20.11;55.09
39449;BME280;25151;45.566;9.382;2023-03-22T13:28:23;99577.25;;;20.12;55.34
39449;BME280;25151;45.566;9.382;2023-03-22T13:31:54;99572.44;;;20.12;54.90
39449;BME280;25151;45.566;9.382;2023-03-22T13:34:58;99570.88;;;20.11;55.11
39449;BME280;25151;45.566;9.382;2023-03-22T13:38:02;99571.66;;;20.12;55.19
39449;BME280;25151;45.566;9.382;2023-03-22T13:44:28;99561.22;;;20.12;55.29
39449;BME280;25151;45.566;9.382;2023-03-22T13:47:34;99555.63;;;20.12;55.03
39449;BME280;25151;45.566;9.382;2023-03-22T13:50:37;99550.03;;;20.12;55.25
39449;BME280;25151;45.566;9.382;2023-03-22T13:53:50;99549.69;;;20.10;55.15
39449;BME280;25151;45.566;9.382;2023-03-22T13:56:58;99549.25;;;20.12;55.31
39449;BME280;25151;45.566;9.382;2023-03-22T14:03:31;99540.50;;;20.10;54.93
39449;BME280;25151;45.566;9.382;2023-03-22T14:06:42;99541.28;;;20.10;54.95
39449;BME280;25151;45.566;9.382;2023-03-22T14:09:50;99548.47;;;20.11;54.79
39449;BME280;25151;45.566;9.382;2023-03-22T14:12:57;99542.06;;;20.11;55.01
39449;BME280;25151;45.566;9.382;2023-03-22T14:19:40;99525.28;;;20.11;55.08
39449;BME280;25151;45.566;9.382;2023-03-22T14:22:49;99531.69;;;20.11;55.27
39449;BME280;25151;45.566;9.382;2023-03-22T14:25:59;99526.09;;;20.11;55.13
39449;BME280;25151;45.566;9.382;2023-03-22T14:29:15;99518.13;;;20.10;55.06
39449;BME280;25151;45.566;9.382;2023-03-22T14:32:26;99516.09;;;20.10;55.16
39449;BME280;25151;45.566;9.382;2023-03-22T14:35:34;99502.88;;;20.11;55.18
39449;BME280;25151;45.566;9.382;2023-03-22T14:38:39;99507.69;;;20.10;55.23
39449;BME280;25151;45.566;9.382;2023-03-22T14:42:32;99502.88;;;20.11;55.00
39449;BME280;25151;45.566;9.382;2023-03-22T14:45:33;99508.94;;;20.09;55.03
39449;BME280;25151;45.566;9.382;2023-03-22T14:48:36;99497.75;;;20.09;55.15
39449;BME280;25151;45.566;9.382;2023-03-22T14:51:40;99502.09;;;20.10;55.14
39449;BME280;25151;45.566;9.382;2023-03-22T14:54:45;99489.34;;;20.09;55.30
39449;BME280;25151;45.566;9.382;2023-03-22T14:57:57;99492.63;;;20.08;55.01
39449;BME280;25151;45.566;9.382;2023-03-22T15:01:06;99492.16;;;20.09;55.30
39449;BME280;25151;45.566;9.382;2023-03-22T15:04:10;99494.16;;;20.09;55.12
39449;BME280;25151;45.566;9.382;2023-03-22T15:07:16;99487.78;;;20.08;54.96
39449;BME280;25151;45.566;9.382;2023-03-22T15:10:22;99479.41;;;20.08;54.99
39449;BME280;25151;45.566;9.382;2023-03-22T15:13:26;99476.59;;;20.08;55.04
39449;BME280;25151;45.566;9.382;2023-03-22T15:16:33;99475.81;;;20.08;55.12
39449;BME280;25151;45.566;9.382;2023-03-22T15:19:39;99475.81;;;20.08;55.07
39449;BME280;25151;45.566;9.382;2023-03-22T15:22:52;99478.63;;;20.08;55.17
39449;BME280;25151;45.566;9.382;2023-03-22T15:25:55;99473.78;;;20.08;55.06
39449;BME280;25151;45.566;9.382;2023-03-22T15:29:05;99475.00;;;20.07;55.15
39449;BME280;25151;45.566;9.382;2023-03-22T15:32:19;99467.84;;;20.06;55.30
39449;BME280;25151;45.566;9.382;2023-03-22T15:35:22;99479.06;;;20.06;55.01
39449;BME280;25151;45.566;9.382;2023-03-22T15:38:44;99473.47;;;20.06;55.28
39449;BME280;25151;45.566;9.382;2023-03-22T15:45:00;99463.50;;;20.05;55.31
39449;BME280;25151;45.566;9.382;2023-03-22T15:48:15;99469.09;;;20.05;55.29
39449;BME280;25151;45.566;9.382;2023-03-22T15:51:19;99467.53;;;20.04;55.20
39449;BME280;25151;45.566;9.382;2023-03-22T15:54:28;99467.53;;;20.04;55.42
39449;BME280;25151;45.566;9.382;2023-03-22T15:57:51;99467.97;;;20.03;55.43
39449;BME280;25151;45.566;9.382;2023-03-22T16:00:54;99477.16;;;20.03;55.17
39449;BME280;25151;45.566;9.382;2023-03-22T16:04:21;99472.81;;;20.02;55.44
39449;BME280;25151;45.566;9.382;2023-03-22T16:07:26;99473.56;;;20.03;55.26
39449;BME280;25151;45.566;9.382;2023-03-22T16:10:29;99477.16;;;20.03;55.47
39449;BME280;25151;45.566;9.382;2023-03-22T16:13:31;99471.25;;;20.01;55.52
39449;BME280;25151;45.566;9.382;2023-03-22T16:16:34;99478.41;;;20.02;55.37
39449;BME280;25151;45.566;9.382;2023-03-22T16:19:37;99464.09;;;20.00;55.28
39449;BME280;25151;45.566;9.382;2023-03-22T16:22:40;99479.63;;;20.01;55.25
39449;BME280;25151;45.566;9.382;2023-03-22T16:25:42;99480.41;;;20.02;55.28
39449;BME280;25151;45.566;9.382;2023-03-22T16:28:44;99480.09;;;20.00;55.40
39449;BME280;25151;45.566;9.382;2023-03-22T16:31:46;99482.44;;;20.01;55.47
39449;BME280;25151;45.566;9.382;2023-03-22T16:34:59;99486.47;;;20.00;55.61
39449;BME280;25151;45.566;9.382;2023-03-22T16:38:02;99484.91;;;19.99;55.28
39449;BME280;25151;45.566;9.382;2023-03-22T16:41:04;99484.13;;;19.99;55.45
39449;BME280;25151;45.566;9.382;2023-03-22T16:44:14;99489.72;;;19.99;55.38
39449;BME280;25151;45.566;9.382;2023-03-22T16:47:24;99493.28;;;19.99;55.32
39449;BME280;25151;45.566;9.382;2023-03-22T16:50:28;99496.09;;;19.99;55.45
39449;BME280;25151;45.566;9.382;2023-03-22T16:53:31;99488.94;;;19.98;55.29
39449;BME280;25151;45.566;9.382;2023-03-22T16:56:35;99492.97;;;19.97;55.40
39449;BME280;25151;45.566;9.382;2023-03-22T16:59:36;99498.56;;;19.97;55.34
39449;BME280;25151;45.566;9.382;2023-03-22T17:02:39;99497.78;;;19.97;55.64
39449;BME280;25151;45.566;9.382;2023-03-22T17:05:43;99497.78;;;19.97;55.51
39449;BME280;25151;45.566;9.382;2023-03-22T17:08:46;99504.63;;;19.96;55.42
39449;BME280;25151;45.566;9.382;2023-03-22T17:11:46;99508.22;;;19.96;55.46
39449;BME280;25151;45.566;9.382;2023-03-22T17:14:49;99503.06;;;19.95;55.58
39449;BME280;25151;45.566;9.382;2023-03-22T17:17:51;99508.22;;;19.96;55.50
39449;BME280;25151;45.566;9.382;2023-03-22T17:20:52;99509.00;;;19.97;55.77
39449;BME280;25151;45.566;9.382;2023-03-22T17:23:59;99518.47;;;19.99;55.71
39449;BME280;25151;45.566;9.382;2023-03-22T17:26:59;99512.44;;;20.01;56.03
39449;BME280;25151;45.566;9.382;2023-03-22T17:30:00;99516.03;;;20.01;56.07
39449;BME280;25151;45.566;9.382;2023-03-22T17:33:01;99513.53;;;20.03;55.94
39449;BME280;25151;45.566;9.382;2023-03-22T17:36:03;99509.53;;;20.04;55.87
39449;BME280;25151;45.566;9.382;2023-03-22T17:39:05;99525.38;;;20.07;56.05
39449;BME280;25151;45.566;9.382;2023-03-22T17:42:12;99519.78;;;20.07;56.08
39449;BME280;25151;45.566;9.382;2023-03-22T17:45:26;99511.75;;;20.09;55.93